createdAt,value
2023-05-22T03:02:50.876Z,13.00
2023-05-22T03:05:18.427Z,11.52
2023-05-22T03:07:48.337Z,10.88
2023-05-22T03:10:16.176Z,12.32
2023-05-22T03:12:43.362Z,10.95
2023-05-22T03:15:11.453Z,14.40
2023-05-22T03:17:39.021Z,11.60
2023-05-22T03:20:08.554Z,13.02
2023-05-22T03:22:35.815Z,12.85
2023-05-22T03:25:04.021Z,13.85
2023-05-22T03:27:31.222Z,12.00
2023-05-22T03:29:58.380Z,12.10
2023-05-22T03:32:26.019Z,12.40
2023-05-22T03:34:53.285Z,11.88
2023-05-22T03:37:20.711Z,12.45
2023-05-22T03:39:47.930Z,12.32
2023-05-22T03:42:16.306Z,11.15
2023-05-22T03:44:43.570Z,12.10
2023-05-22T03:47:10.757Z,11.73
2023-05-22T03:49:37.978Z,10.90
2023-05-22T03:52:05.310Z,11.18
2023-05-22T03:54:32.484Z,10.48
2023-05-22T03:56:59.712Z,11.20
2023-05-22T03:59:26.896Z,11.93
2023-05-22T04:01:54.167Z,12.75
2023-05-22T04:04:22.001Z,12.55
2023-05-22T04:06:49.925Z,12.35
2023-05-22T04:09:17.134Z,12.07
2023-05-22T04:11:44.550Z,11.98
2023-05-22T04:14:11.934Z,12.15
2023-05-22T04:16:39.205Z,10.60
2023-05-22T04:19:06.703Z,11.38
2023-05-22T04:21:34.437Z,11.05
2023-05-22T04:26:34.241Z,11.23
2023-05-22T04:29:02.237Z,10.00
2023-05-22T04:31:30.106Z,11.30
2023-05-22T04:34:00.027Z,10.45
2023-05-22T04:36:28.052Z,10.60
2023-05-22T04:38:55.765Z,11.75
2023-05-22T04:41:26.456Z,11.45
2023-05-22T04:43:54.050Z,10.52
2023-05-22T04:46:21.368Z,10.15
2023-05-22T04:48:48.771Z,9.98
2023-05-22T04:51:16.021Z,9.35
2023-05-22T04:53:43.326Z,9.55
2023-05-22T04:56:11.876Z,9.63
2023-05-22T04:58:40.402Z,8.57
2023-05-22T05:01:07.664Z,8.98
2023-05-22T05:03:34.978Z,9.10
2023-05-22T05:06:02.269Z,9.40
2023-05-22T05:08:29.479Z,8.70
2023-05-22T05:10:56.798Z,9.10
2023-05-22T05:13:23.960Z,9.38
2023-05-22T05:15:51.677Z,9.25
2023-05-22T05:18:20.184Z,9.85
2023-05-22T05:20:47.391Z,8.60
2023-05-22T05:23:15.383Z,8.98
2023-05-22T05:25:42.634Z,8.93
2023-05-22T05:28:12.900Z,9.13
2023-05-22T05:30:41.175Z,8.70
2023-05-22T05:33:08.799Z,8.57
2023-05-22T05:35:36.215Z,7.68
2023-05-22T05:38:03.897Z,7.10
2023-05-22T05:40:31.242Z,8.30
2023-05-22T05:42:58.445Z,7.78
2023-05-22T05:45:26.271Z,7.95
2023-05-22T05:47:53.462Z,8.20
2023-05-22T05:50:20.995Z,8.77
2023-05-22T05:52:48.230Z,8.43
2023-05-22T05:55:15.512Z,7.97
2023-05-22T05:57:42.767Z,7.78
2023-05-22T06:00:13.608Z,8.52
2023-05-22T06:02:41.867Z,8.95
2023-05-22T06:05:10.142Z,7.93
2023-05-22T06:07:38.097Z,7.72
2023-05-22T06:10:06.955Z,8.50
2023-05-22T06:12:34.204Z,8.75
2023-05-22T06:15:01.636Z,8.18
2023-05-22T06:17:28.894Z,8.15
2023-05-22T06:19:56.538Z,7.00
2023-05-22T06:22:25.772Z,6.70
2023-05-22T06:24:56.552Z,6.38
2023-05-22T06:27:24.244Z,6.25
2023-05-22T06:29:51.526Z,6.95
2023-05-22T06:32:18.778Z,6.82
2023-05-22T06:34:47.855Z,6.00
2023-05-22T06:37:16.056Z,5.90
2023-05-22T06:39:43.438Z,6.80
2023-05-22T06:42:10.728Z,6.63
2023-05-22T06:44:37.989Z,6.82
2023-05-22T06:47:05.758Z,6.60
2023-05-22T06:49:32.997Z,6.28
2023-05-22T06:52:00.256Z,6.45
2023-05-22T06:54:29.460Z,6.30
2023-05-22T06:56:57.518Z,5.75
2023-05-22T06:59:24.782Z,6.22
2023-05-22T07:01:51.985Z,6.10
2023-05-22T07:04:19.208Z,5.97
2023-05-22T07:06:48.510Z,6.38
2023-05-22T07:09:15.867Z,6.13
2023-05-22T07:11:43.915Z,5.80
2023-05-22T07:14:12.569Z,6.55
2023-05-22T07:16:40.787Z,6.20
2023-05-22T07:19:12.029Z,5.03
2023-05-22T07:21:39.346Z,5.72
2023-05-22T07:24:09.607Z,5.65
2023-05-22T07:26:37.916Z,5.55
2023-05-22T07:29:05.502Z,5.50
2023-05-22T07:31:34.354Z,6.07
2023-05-22T07:34:01.768Z,5.78
2023-05-22T07:36:29.028Z,6.22
2023-05-22T07:38:56.445Z,6.35
2023-05-22T07:41:25.527Z,6.28
2023-05-22T07:43:53.009Z,5.65
2023-05-22T07:46:20.329Z,6.22
2023-05-22T07:48:47.532Z,6.03
2023-05-22T07:51:14.804Z,7.20
2023-05-22T07:53:42.089Z,6.35
2023-05-22T07:56:09.273Z,7.07
2023-05-22T07:58:37.041Z,5.90
2023-05-22T08:01:05.856Z,6.68
2023-05-22T08:03:34.791Z,6.43
2023-05-22T08:06:03.602Z,6.38
2023-05-22T08:08:32.077Z,7.32
2023-05-22T08:11:03.705Z,6.38
2023-05-22T08:13:32.330Z,6.65
2023-05-22T08:16:00.233Z,6.70
2023-05-22T08:18:29.395Z,6.93
2023-05-22T08:20:57.282Z,7.05
2023-05-22T08:23:24.610Z,6.47
2023-05-22T08:25:51.888Z,6.70
2023-05-22T08:28:19.112Z,6.47
2023-05-22T08:30:46.338Z,6.60
2023-05-22T08:33:13.676Z,7.25
2023-05-22T08:35:41.054Z,6.32
2023-05-22T08:38:08.282Z,6.68
2023-05-22T08:40:37.785Z,6.30
2023-05-22T08:43:06.450Z,6.07
2023-05-22T08:45:34.658Z,6.85
2023-05-22T08:48:06.327Z,7.28
2023-05-22T08:50:38.955Z,6.70
2023-05-22T08:53:08.384Z,6.70
2023-05-22T08:55:36.591Z,6.20
2023-05-22T08:58:04.624Z,7.05
2023-05-22T09:00:32.647Z,7.18
2023-05-22T09:03:00.283Z,7.25
2023-05-22T09:05:27.704Z,6.70
2023-05-22T09:08:02.713Z,7.28
2023-05-22T09:10:36.022Z,7.32
2023-05-22T09:13:05.113Z,7.80
2023-05-22T09:15:32.804Z,7.80
2023-05-22T09:18:01.158Z,7.30
2023-05-22T09:20:28.854Z,7.35
2023-05-22T09:22:56.693Z,8.63
2023-05-22T09:25:24.041Z,8.93
2023-05-22T09:27:51.328Z,8.65
2023-05-22T09:30:19.604Z,7.60
2023-05-22T09:32:49.055Z,8.27
2023-05-22T09:35:18.467Z,8.63
2023-05-22T09:37:45.858Z,9.07
2023-05-22T09:40:14.246Z,9.07
2023-05-22T09:42:47.547Z,9.85
2023-05-22T09:45:19.220Z,8.50
2023-05-22T09:47:49.424Z,8.88
2023-05-22T09:50:17.561Z,8.40
2023-05-22T09:52:46.291Z,8.88
2023-05-22T09:55:14.515Z,9.15
2023-05-22T09:57:46.452Z,9.30
2023-05-22T10:00:16.091Z,9.38
2023-05-22T10:02:49.565Z,9.70
2023-05-22T10:05:25.878Z,10.45
2023-05-22T10:07:57.008Z,9.80
2023-05-22T10:10:26.978Z,7.72
2023-05-22T10:13:00.959Z,8.52
2023-05-22T10:15:28.438Z,8.73
2023-05-22T10:17:56.382Z,9.68
2023-05-22T10:20:26.469Z,8.30
2023-05-22T10:22:54.842Z,9.60
2023-05-22T10:25:22.568Z,9.13
2023-05-22T10:27:53.137Z,9.60
2023-05-22T10:30:32.975Z,8.38
2023-05-22T10:33:21.486Z,8.77
2023-05-22T10:35:57.099Z,7.65
2023-05-22T10:38:29.809Z,7.35
2023-05-22T10:40:57.399Z,6.85
2023-05-22T10:43:25.202Z,8.43
2023-05-22T10:46:06.437Z,7.32
2023-05-22T10:48:41.575Z,7.88
2023-05-22T10:51:09.196Z,6.47
2023-05-22T10:53:36.996Z,6.85
2023-05-22T10:56:15.509Z,8.00
2023-05-22T10:58:55.738Z,7.05
2023-05-22T11:01:26.293Z,7.60
2023-05-22T11:04:01.376Z,9.10
2023-05-22T11:06:45.994Z,8.60
2023-05-22T11:09:33.186Z,7.35
2023-05-22T11:12:20.832Z,8.32
2023-05-22T11:14:58.487Z,7.60
2023-05-22T11:17:30.196Z,7.18
2023-05-22T11:20:12.849Z,7.15
2023-05-22T11:22:42.946Z,7.60
2023-05-22T11:25:17.843Z,7.28
2023-05-22T11:27:47.483Z,6.80
2023-05-22T11:30:16.088Z,7.40
2023-05-22T11:32:45.760Z,7.22
2023-05-22T11:35:20.663Z,6.88
2023-05-22T11:37:49.715Z,7.50
2023-05-22T11:40:25.548Z,8.15
2023-05-22T11:42:53.905Z,8.15
2023-05-22T11:45:21.652Z,7.63
2023-05-22T11:47:49.691Z,7.85
2023-05-22T11:50:29.228Z,7.00
2023-05-22T11:53:02.850Z,7.15
2023-05-22T11:55:30.135Z,6.78
2023-05-22T11:57:58.387Z,6.72
2023-05-22T12:00:26.469Z,7.78
2023-05-22T12:02:54.856Z,7.00
2023-05-22T12:05:22.243Z,6.55
2023-05-22T12:07:49.765Z,6.72
2023-05-22T12:10:17.040Z,6.93
2023-05-22T12:12:44.648Z,7.20
2023-05-22T12:15:12.260Z,7.00
2023-05-22T12:17:40.162Z,7.20
2023-05-22T12:20:07.751Z,8.27
2023-05-22T12:22:41.825Z,7.30
2023-05-22T12:25:17.220Z,6.57
2023-05-22T12:27:47.899Z,6.90
2023-05-22T12:30:16.842Z,6.43
2023-05-22T12:32:49.040Z,6.03
2023-05-22T12:35:17.599Z,7.30
2023-05-22T12:37:51.903Z,7.22
2023-05-22T12:40:19.361Z,6.85
2023-05-22T12:42:48.056Z,6.25
2023-05-22T12:45:15.413Z,7.70
2023-05-22T12:47:42.822Z,6.85
2023-05-22T12:50:10.293Z,7.72
2023-05-22T12:52:37.522Z,7.38
2023-05-22T12:55:05.091Z,7.13
2023-05-22T12:57:32.319Z,7.13
2023-05-22T12:59:59.536Z,6.80
2023-05-22T13:02:26.889Z,7.30
2023-05-22T13:04:54.187Z,7.50
2023-05-22T13:07:21.445Z,6.75
2023-05-22T13:09:48.649Z,6.75
2023-05-22T13:12:19.376Z,6.53
2023-05-22T13:14:46.755Z,7.47
2023-05-22T13:17:13.940Z,7.28
2023-05-22T13:19:41.147Z,7.05
2023-05-22T13:22:08.866Z,6.75
2023-05-22T13:24:36.171Z,6.50
2023-05-22T13:27:03.438Z,6.40
2023-05-22T13:29:33.026Z,7.32
2023-05-22T13:32:01.300Z,6.95
2023-05-22T13:34:29.531Z,6.15
2023-05-22T13:36:56.912Z,6.85
2023-05-22T13:39:24.126Z,6.68
2023-05-22T13:41:54.256Z,6.40
2023-05-22T13:44:21.802Z,6.47
2023-05-22T13:46:49.116Z,6.07
2023-05-22T13:49:16.324Z,6.72
2023-05-22T13:51:43.761Z,6.32
2023-05-22T13:54:11.305Z,5.68
2023-05-22T13:56:38.564Z,6.00
2023-05-22T13:59:08.401Z,6.00
2023-05-22T14:01:36.539Z,6.60
2023-05-22T14:04:04.003Z,6.07
2023-05-22T14:06:31.406Z,5.97
2023-05-22T14:08:59.145Z,6.00
2023-05-22T14:11:27.188Z,5.60
2023-05-22T14:13:54.400Z,5.45
2023-05-22T14:16:24.340Z,6.00
2023-05-22T14:18:51.675Z,6.18
2023-05-22T14:21:19.536Z,5.50
2023-05-22T14:23:46.789Z,6.07
2023-05-22T14:26:14.462Z,6.40
2023-05-22T14:28:42.356Z,5.85
2023-05-22T14:31:09.739Z,6.20
2023-05-22T14:33:37.173Z,5.75
2023-05-22T14:36:04.583Z,5.88
2023-05-22T14:38:36.143Z,5.93
2023-05-22T14:41:03.477Z,6.13
2023-05-22T14:43:30.898Z,6.07
2023-05-22T14:45:59.182Z,5.63
2023-05-22T14:48:26.838Z,6.40
2023-05-22T14:50:54.293Z,6.60
2023-05-22T14:53:22.168Z,6.38
2023-05-22T14:55:49.427Z,5.97
2023-05-22T14:58:16.634Z,6.50
2023-05-22T15:00:45.643Z,7.05
2023-05-22T15:03:13.506Z,6.78
2023-05-22T15:05:40.988Z,7.35
2023-05-22T15:08:08.429Z,7.53
2023-05-22T15:10:36.192Z,6.50
2023-05-22T15:13:03.501Z,6.68
2023-05-22T15:15:31.049Z,6.97
2023-05-22T15:18:02.452Z,7.88
2023-05-22T15:20:30.275Z,7.38
2023-05-22T15:22:59.387Z,6.40
2023-05-22T15:25:26.802Z,6.60
2023-05-22T15:27:54.016Z,8.00
2023-05-22T15:30:23.333Z,7.47
2023-05-22T15:32:50.773Z,7.07
2023-05-22T15:35:17.964Z,6.80
2023-05-22T15:37:45.273Z,6.53
2023-05-22T15:40:16.281Z,6.90
2023-05-22T15:42:43.582Z,6.10
2023-05-22T15:45:10.870Z,6.38
2023-05-22T15:47:38.067Z,6.20
2023-05-22T15:50:05.962Z,6.78
2023-05-22T15:52:33.200Z,7.60
2023-05-22T15:55:00.478Z,8.15
2023-05-22T15:57:30.868Z,8.07
2023-05-22T15:59:58.111Z,8.00
2023-05-22T16:02:25.634Z,7.32
2023-05-22T16:04:52.940Z,8.95
2023-05-22T16:07:20.199Z,8.10
2023-05-22T16:09:47.456Z,7.65
2023-05-22T16:12:14.754Z,8.18
2023-05-22T16:14:42.137Z,7.90
2023-05-22T16:17:09.338Z,8.25
2023-05-22T16:19:36.693Z,7.53
2023-05-22T16:22:04.184Z,8.13
2023-05-22T16:24:31.412Z,8.27
2023-05-22T16:26:59.869Z,7.80
2023-05-22T16:29:27.105Z,7.38
2023-05-22T16:31:54.502Z,7.03
2023-05-22T16:34:22.463Z,6.68
2023-05-22T16:36:49.713Z,6.90
2023-05-22T16:39:16.909Z,7.15
2023-05-22T16:41:44.216Z,6.50
2023-05-22T16:44:11.440Z,6.03
2023-05-22T16:46:38.659Z,6.57
2023-05-22T16:49:05.819Z,6.10
2023-05-22T16:51:33.106Z,6.10
2023-05-22T16:54:00.513Z,5.95
2023-05-22T16:56:28.136Z,5.65
2023-05-22T16:58:55.520Z,5.10
2023-05-22T17:01:23.288Z,5.43
2023-05-22T17:03:50.806Z,5.07
2023-05-22T17:06:20.812Z,5.05
2023-05-22T17:08:48.475Z,5.00
2023-05-22T17:11:15.800Z,5.00
2023-05-22T17:13:43.003Z,4.95
2023-05-22T17:16:10.217Z,4.70
2023-05-22T17:18:37.752Z,5.00
2023-05-22T17:21:05.122Z,5.20
2023-05-22T17:23:36.914Z,4.90
2023-05-22T17:26:04.727Z,5.00
2023-05-22T17:28:32.016Z,5.00
2023-05-22T17:30:59.361Z,5.80
2023-05-22T17:33:26.649Z,4.75
2023-05-22T17:35:53.883Z,5.88
2023-05-22T17:38:21.986Z,6.22
2023-05-22T17:40:49.599Z,6.18
2023-05-22T17:43:18.992Z,6.65
2023-05-22T17:48:23.264Z,7.22
2023-05-22T17:50:50.593Z,8.98
2023-05-22T17:53:19.615Z,7.18
2023-05-22T17:55:47.806Z,6.43
2023-05-22T17:58:16.341Z,7.53
2023-05-22T18:00:43.761Z,9.10
2023-05-22T18:03:12.210Z,6.97
2023-05-22T18:05:39.569Z,7.13
2023-05-22T18:08:06.834Z,7.20
2023-05-22T18:10:34.136Z,8.80
2023-05-22T18:13:01.351Z,8.80
2023-05-22T18:15:28.697Z,8.63
2023-05-22T18:17:55.919Z,8.10
2023-05-22T18:20:23.188Z,7.15
2023-05-22T18:22:50.448Z,8.05
2023-05-22T18:25:17.657Z,7.35
2023-05-22T18:27:44.927Z,7.97
2023-05-22T18:30:12.555Z,7.80
2023-05-22T18:32:39.816Z,7.25
2023-05-22T18:35:07.586Z,8.52
2023-05-22T18:37:34.823Z,9.38
2023-05-22T18:40:02.092Z,8.82
2023-05-22T18:42:29.294Z,8.35
2023-05-22T18:44:56.451Z,8.50
2023-05-22T18:47:23.652Z,8.02
2023-05-22T18:49:51.065Z,8.52
2023-05-22T18:52:18.247Z,8.82
2023-05-22T18:54:45.678Z,8.60
2023-05-22T18:57:12.930Z,8.38
2023-05-22T18:59:40.780Z,8.98
2023-05-22T19:02:08.834Z,9.43
2023-05-22T19:04:36.149Z,8.70
2023-05-22T19:07:03.403Z,9.00
2023-05-22T19:09:30.626Z,8.77
2023-05-22T19:11:57.940Z,8.65
2023-05-22T19:14:25.186Z,8.85
2023-05-22T19:16:52.507Z,8.57
2023-05-22T19:19:19.794Z,7.22
2023-05-22T19:21:47.132Z,7.70
2023-05-22T19:24:14.296Z,7.25
2023-05-22T19:26:41.953Z,7.07
2023-05-22T19:29:09.170Z,6.65
2023-05-22T19:31:36.582Z,6.65
2023-05-22T19:34:04.602Z,6.25
2023-05-22T19:36:32.614Z,6.78
2023-05-22T19:38:59.816Z,8.10
2023-05-22T19:41:27.015Z,8.77
2023-05-22T19:43:54.223Z,8.93
2023-05-22T19:46:21.588Z,9.80
2023-05-22T19:48:48.981Z,10.13
2023-05-22T19:51:16.686Z,9.70
2023-05-22T19:53:44.366Z,9.95
2023-05-22T19:56:12.020Z,9.18
2023-05-22T19:58:40.044Z,9.30
2023-05-22T20:01:07.347Z,9.02
2023-05-22T20:03:34.714Z,8.05
2023-05-22T20:06:01.950Z,8.05
2023-05-22T20:08:29.145Z,7.00
2023-05-22T20:10:56.410Z,7.95
2023-05-22T20:13:23.650Z,9.35
2023-05-22T20:15:53.339Z,10.07
2023-05-22T20:18:22.118Z,9.02
2023-05-22T20:20:49.619Z,9.40
2023-05-22T20:23:16.850Z,9.80
2023-05-22T20:25:44.030Z,10.13
2023-05-22T20:28:11.269Z,10.13
2023-05-22T20:30:38.556Z,11.15
2023-05-22T20:33:06.297Z,10.45
2023-05-22T20:35:33.808Z,9.57
2023-05-22T20:38:04.147Z,9.20
2023-05-22T20:40:34.307Z,10.38
2023-05-22T20:43:04.635Z,9.52
2023-05-22T20:45:32.916Z,9.70
2023-05-22T20:48:00.750Z,9.85
2023-05-22T20:50:28.022Z,10.18
2023-05-22T20:52:55.229Z,9.98
2023-05-22T20:55:22.460Z,9.60
2023-05-22T20:57:49.670Z,10.02
2023-05-22T21:00:17.798Z,9.55
